Time;durP1;ratioP1;P1;durP2;ratioP2;P2;SDS_P1;SDS_P2;PMS_P1;PMS_P2;Temp;Humidity;BMP_temperature;BMP_pressure;BME280_temperature;BME280_humidity;BME280_pressure;Samples;Min_cycle;Max_cycle;Signal;HPM_P1;HPM_P2
2023/01/10 05:15:22;;;;;;;6.37;4.97;;;;;;;4.91;100.00;99085.22;5559455;32;203083;-87
2023/01/10 05:18:27;;;;;;;5.55;4.82;;;;;;;4.90;100.00;99099.28;5547787;32;34024;-87
2023/01/10 05:21:30;;;;;;;6.15;5.00;;;;;;;4.91;100.00;99094.84;5546971;32;34571;-88
2023/01/10 05:24:33;;;;;;;4.35;3.95;;;;;;;4.93;100.00;99104.38;5546366;32;33654;-87
2023/01/10 05:27:35;;;;;;;5.25;4.40;;;;;;;4.97;100.00;99105.94;5547651;32;34048;-87
2023/01/10 05:30:40;;;;;;;5.32;4.20;;;;;;;4.99;100.00;99121.66;5545909;32;34179;-87
2023/01/10 05:33:48;;;;;;;4.70;4.20;;;;;;;5.04;100.00;99124.06;5545818;32;33664;-87
2023/01/10 05:36:51;;;;;;;4.25;3.85;;;;;;;5.07;100.00;99123.91;5546691;32;34405;-87
2023/01/10 05:39:53;;;;;;;5.00;4.22;;;;;;;5.04;100.00;99121.44;5545869;32;34663;-92
2023/01/10 05:42:56;;;;;;;4.75;4.00;;;;;;;5.07;100.00;99122.13;5545516;32;34089;-91
2023/01/10 05:45:59;;;;;;;4.87;4.35;;;;;;;5.07;100.00;99119.50;5544374;32;33421;-91
2023/01/10 05:49:02;;;;;;;4.85;4.35;;;;;;;5.07;100.00;99114.25;5545549;32;34062;-92
2023/01/10 05:52:05;;;;;;;5.18;3.80;;;;;;;5.11;100.00;99107.06;5546443;32;33689;-88
2023/01/10 05:55:08;;;;;;;4.32;3.92;;;;;;;5.11;100.00;99115.81;5545168;32;33689;-88
2023/01/10 05:58:10;;;;;;;4.87;3.75;;;;;;;5.16;100.00;99123.47;5545625;32;34475;-88
2023/01/10 06:01:13;;;;;;;4.80;4.12;;;;;;;5.16;100.00;99126.09;5544948;32;32643;-87
2023/01/10 06:04:16;;;;;;;4.35;3.95;;;;;;;5.23;100.00;99132.78;5549395;32;34005;-86
2023/01/10 06:07:19;;;;;;;4.40;3.87;;;;;;;5.44;100.00;99137.94;5544352;32;34007;-86
2023/01/10 06:10:22;;;;;;;4.25;3.85;;;;;;;5.38;100.00;99140.88;5534398;32;34905;-86
2023/01/10 06:13:28;;;;;;;6.35;3.67;;;;;;;5.40;100.00;99150.38;5532974;32;34463;-85
2023/01/10 06:16:31;;;;;;;4.82;3.53;;;;;;;5.50;100.00;99156.06;5546697;32;33114;-86
2023/01/10 06:19:33;;;;;;;2.90;2.42;;;;;;;5.48;100.00;99159.69;5554017;32;35011;-86
2023/01/10 06:22:40;;;;;;;2.87;2.67;;;;;;;5.48;100.00;99167.56;5548818;32;34816;-87
2023/01/10 06:25:43;;;;;;;3.37;2.35;;;;;;;5.46;100.00;99172.03;5540513;32;34042;-85
2023/01/10 06:28:46;;;;;;;2.55;2.20;;;;;;;5.46;100.00;99172.91;5529890;32;32499;-85
2023/01/10 06:31:48;;;;;;;2.50;1.67;;;;;;;5.31;100.00;99186.78;5529472;32;32309;-85
2023/01/10 06:34:51;;;;;;;1.85;1.40;;;;;;;5.24;100.00;99194.09;5531949;32;34095;-85
2023/01/10 06:37:54;;;;;;;1.65;1.30;;;;;;;5.12;100.00;99196.38;5522796;32;34303;-85
2023/01/10 06:40:57;;;;;;;1.85;1.52;;;;;;;5.11;100.00;99197.31;5529767;32;33399;-85
2023/01/10 06:43:59;;;;;;;1.92;1.60;;;;;;;5.12;100.00;99209.53;5533078;32;34716;-85
2023/01/10 06:47:02;;;;;;;2.10;1.50;;;;;;;5.05;100.00;99209.88;5531505;32;32443;-84
2023/01/10 06:50:05;;;;;;;2.10;1.60;;;;;;;5.16;100.00;99202.34;5526788;32;33954;-85
2023/01/10 06:53:08;;;;;;;1.70;1.35;;;;;;;5.22;100.00;99207.31;5533983;32;34172;-85
2023/01/10 06:56:11;;;;;;;2.53;1.50;;;;;;;5.20;100.00;99208.31;5521053;32;34732;-85
2023/01/10 06:59:14;;;;;;;1.90;1.62;;;;;;;5.13;100.00;99213.84;5523085;32;34047;-86
2023/01/10 07:02:17;;;;;;;2.05;1.80;;;;;;;5.20;100.00;99226.72;5523166;32;33956;-87
2023/01/10 07:05:21;;;;;;;1.95;1.45;;;;;;;5.04;100.00;99222.19;5528136;32;35307;-88
2023/01/10 07:08:23;;;;;;;1.65;1.55;;;;;;;5.05;100.00;99229.13;5529511;32;33673;-87
2023/01/10 07:11:26;;;;;;;1.58;1.35;;;;;;;5.06;100.00;99237.84;5519860;32;34797;-87
2023/01/10 07:14:29;;;;;;;1.95;1.30;;;;;;;4.98;100.00;99256.63;5533595;32;33659;-87
2023/01/10 07:17:32;;;;;;;1.10;1.00;;;;;;;4.98;100.00;99262.72;5519607;32;33788;-88
2023/01/10 07:20:35;;;;;;;2.08;1.08;;;;;;;5.00;100.00;99270.53;5523823;32;34609;-86
2023/01/10 07:23:38;;;;;;;1.90;1.50;;;;;;;4.82;100.00;99275.69;5529787;32;33950;-86
2023/01/10 07:26:41;;;;;;;1.90;1.70;;;;;;;4.78;100.00;99283.78;5529433;32;31068;-87
2023/01/10 07:29:43;;;;;;;2.37;1.67;;;;;;;4.79;100.00;99286.34;5526862;32;35023;-88
2023/01/10 07:32:52;;;;;;;1.77;1.60;;;;;;;5.02;100.00;99294.97;5524448;32;33989;-89
2023/01/10 07:35:56;;;;;;;1.80;1.58;;;;;;;4.90;100.00;99288.50;5532877;32;32658;-88
2023/01/10 07:38:59;;;;;;;1.70;1.48;;;;;;;4.94;100.00;99297.94;5525980;32;33703;-88
2023/01/10 07:42:02;;;;;;;1.37;1.27;;;;;;;4.92;100.00;99307.66;5526594;32;34280;-89
2023/01/10 07:45:07;;;;;;;1.60;1.50;;;;;;;4.94;100.00;99316.31;5534195;32;35202;-89
2023/01/10 07:48:10;;;;;;;1.90;1.60;;;;;;;4.77;100.00;99324.09;5529374;32;33999;-88
2023/01/10 07:51:13;;;;;;;2.00;1.55;;;;;;;4.78;100.00;99331.06;5519122;32;34741;-87
2023/01/10 07:54:16;;;;;;;1.75;1.30;;;;;;;4.88;100.00;99342.88;5519424;32;33868;-86
2023/01/10 07:57:18;;;;;;;1.60;1.35;;;;;;;4.83;100.00;99348.31;5525367;32;34083;-86
2023/01/10 08:00:22;;;;;;;2.12;1.73;;;;;;;4.91;100.00;99347.16;5511125;32;33838;-90
2023/01/10 08:03:26;;;;;;;2.40;1.60;;;;;;;4.85;100.00;99366.66;5510714;32;34330;-92
2023/01/10 08:06:28;;;;;;;1.95;1.50;;;;;;;4.72;100.00;99355.81;5510744;32;33912;-93
2023/01/10 08:09:31;;;;;;;2.35;1.55;;;;;;;4.70;100.00;99366.41;5515810;32;33544;-90
2023/01/10 08:12:34;;;;;;;2.65;1.60;;;;;;;4.75;100.00;99374.09;5514000;32;34385;-90
2023/01/10 08:15:40;;;;;;;1.62;1.50;;;;;;;4.68;100.00;99381.34;5516031;32;35215;-89
2023/01/10 08:18:43;;;;;;;1.58;1.30;;;;;;;4.78;100.00;99391.50;5531178;32;33814;-86
2023/01/10 08:21:46;;;;;;;1.45;1.35;;;;;;;4.69;100.00;99403.25;5527924;32;32581;-88
2023/01/10 08:24:48;;;;;;;1.77;0.95;;;;;;;4.61;100.00;99405.31;5556998;32;35224;-86
2023/01/10 08:27:52;;;;;;;1.90;1.75;;;;;;;4.57;100.00;99421.22;5550501;32;33785;-88
2023/01/10 08:30:54;;;;;;;3.05;1.45;;;;;;;4.51;100.00;99423.22;5539018;32;33674;-87
2023/01/10 08:33:57;;;;;;;1.67;1.20;;;;;;;4.54;100.00;99430.97;5536981;32;33921;-85
2023/01/10 08:37:00;;;;;;;1.73;1.27;;;;;;;4.57;100.00;99436.09;5531403;32;34516;-86
2023/01/10 08:40:04;;;;;;;1.95;1.40;;;;;;;4.58;100.00;99441.28;5538228;32;34072;-87
2023/01/10 08:43:10;;;;;;;2.20;1.95;;;;;;;4.56;100.00;99451.03;5539589;32;34132;-86
2023/01/10 08:46:13;;;;;;;1.92;1.37;;;;;;;4.49;100.00;99452.19;5551898;32;34590;-86
2023/01/10 08:49:16;;;;;;;1.30;1.20;;;;;;;4.42;100.00;99461.19;5544601;32;34855;-87
2023/01/10 08:52:19;;;;;;;2.35;1.40;;;;;;;4.50;100.00;99464.41;5545048;32;34991;-88
2023/01/10 08:55:22;;;;;;;1.23;1.02;;;;;;;4.51;100.00;99471.34;5536090;32;34949;-87
2023/01/10 08:58:25;;;;;;;1.58;1.30;;;;;;;4.39;100.00;99474.47;5518283;32;32849;-87
2023/01/10 09:01:28;;;;;;;2.90;1.20;;;;;;;4.33;100.00;99488.69;5533884;32;33849;-87
2023/01/10 09:04:31;;;;;;;1.30;1.20;;;;;;;4.36;100.00;99496.44;5535898;32;33960;-88
2023/01/10 09:07:34;;;;;;;2.05;1.20;;;;;;;4.57;100.00;99517.53;5529686;32;33668;-87
2023/01/10 09:10:37;;;;;;;1.62;1.30;;;;;;;4.43;100.00;99518.09;5529420;32;35123;-88
2023/01/10 09:13:41;;;;;;;1.65;1.40;;;;;;;4.49;100.00;99532.75;5529560;32;33925;-90
2023/01/10 09:16:45;;;;;;;2.62;1.95;;;;;;;4.37;100.00;99529.66;5529783;32;34529;-90
2023/01/10 09:19:47;;;;;;;2.22;1.50;;;;;;;4.35;100.00;99549.88;5537381;32;34399;-91
2023/01/10 09:22:50;;;;;;;2.05;1.62;;;;;;;4.45;100.00;99542.50;5539551;32;34683;-91
2023/01/10 09:29:22;;;;;;;2.35;1.30;;;;;;;4.29;100.00;99558.81;5506365;32;34785;-92
2023/01/10 09:32:25;;;;;;;2.05;1.25;;;;;;;4.49;100.00;99564.25;5486230;32;32996;-89
2023/01/10 09:35:29;;;;;;;2.10;1.10;;;;;;;4.31;100.00;99561.41;5499658;32;33814;-89
2023/01/10 09:38:32;;;;;;;1.80;1.20;;;;;;;4.16;100.00;99575.94;5554816;26;34599;-91
2023/01/10 09:42:12;;;;;;;1.10;1.00;;;;;;;4.07;100.00;99585.00;5508239;32;34136;-90
2023/01/10 10:04:57;;;;;;;1.10;1.00;;;;;;;3.91;100.00;99621.41;2626814;26;20203;-89
2023/01/10 10:08:01;;;;;;;2.67;1.20;;;;;;;3.90;100.00;99635.44;5520099;32;34008;-90
2023/01/10 10:11:27;;;;;;;1.75;1.20;;;;;;;4.05;100.00;99628.81;5550131;32;33793;-90
2023/01/10 10:14:48;;;;;;;1.37;1.10;;;;;;;4.01;100.00;99633.31;5493447;27;35238;-92
2023/01/10 10:25:22;;;;;;;1.62;1.33;;;;;;;3.85;100.00;99634.75;5439917;32;31554;-90
2023/01/10 10:28:57;;;;;;;1.83;1.20;;;;;;;4.03;100.00;99639.38;5443252;32;33976;-88
2023/01/10 10:32:44;;;;;;;1.67;0.95;;;;;;;4.01;100.00;99632.44;5498650;27;34126;-88
2023/01/10 10:36:14;;;;;;;1.10;1.00;;;;;;;3.94;100.00;99637.06;5433002;32;35060;-88
2023/01/10 10:39:23;;;;;;;2.15;1.50;;;;;;;3.93;100.00;99653.72;5479693;32;34229;-89
2023/01/10 10:42:30;;;;;;;3.35;1.67;;;;;;;3.82;100.00;99658.47;5482027;32;33779;-88
2023/01/10 10:45:43;;;;;;;3.17;1.30;;;;;;;3.90;100.00;99664.31;5484855;32;32471;-88
2023/01/10 10:52:35;;;;;;;1.58;1.08;;;;;;;3.86;100.00;99671.44;4105580;30;20108;-90
2023/01/10 11:03:43;;;;;;;2.12;1.40;;;;;;;4.01;100.00;99688.44;4594984;30;20081;-88
2023/01/10 11:14:09;;;;;;;4.05;1.62;;;;;;;3.87;100.00;99723.00;4011899;30;20137;-91
2023/01/10 11:17:24;;;;;;;2.10;1.55;;;;;;;3.82;100.00;99724.91;5507152;26;33404;-91
2023/01/10 11:24:25;;;;;;;1.50;1.40;;;;;;;3.95;100.00;99741.13;5304888;30;20110;-89
2023/01/10 11:27:31;;;;;;;3.47;1.45;;;;;;;3.94;100.00;99735.94;5476279;32;33819;-88
2023/01/10 11:30:35;;;;;;;3.33;1.30;;;;;;;3.89;100.00;99744.78;5473336;32;34307;-88
2023/01/10 11:33:40;;;;;;;2.83;1.87;;;;;;;3.83;100.00;99744.16;5458941;32;32580;-87
2023/01/10 11:36:56;;;;;;;2.25;1.40;;;;;;;3.89;100.00;99752.66;5473790;32;34915;-87
2023/01/10 11:40:22;;;;;;;2.28;1.40;;;;;;;3.90;100.00;99753.53;5473674;32;34328;-87
2023/01/10 11:43:25;;;;;;;2.80;1.60;;;;;;;4.03;100.00;99748.75;5473470;32;34830;-86
2023/01/10 11:46:28;;;;;;;2.22;1.50;;;;;;;4.23;100.00;99755.13;5473157;32;34105;-87
2023/01/10 11:49:37;;;;;;;1.60;1.50;;;;;;;4.53;100.00;99753.19;5473629;32;34401;-87
2023/01/10 11:52:45;;;;;;;2.15;1.42;;;;;;;4.51;100.00;99752.41;5460228;32;32626;-87
2023/01/10 11:55:50;;;;;;;2.97;1.40;;;;;;;4.68;100.00;99753.59;5473252;32;34909;-86
2023/01/10 11:58:54;;;;;;;4.60;2.53;;;;;;;4.62;100.00;99765.16;5461496;32;32550;-86
2023/01/10 12:02:13;;;;;;;4.20;2.20;;;;;;;4.82;100.00;99758.34;5473915;32;33893;-87
2023/01/10 12:05:22;;;;;;;7.12;3.50;;;;;;;4.32;100.00;99775.78;5476789;32;34238;-87
2023/01/10 12:08:35;;;;;;;3.47;2.05;;;;;;;4.16;100.00;99772.81;5480863;32;34889;-88
2023/01/10 12:11:38;;;;;;;2.37;1.75;;;;;;;4.07;100.00;99778.38;5474047;32;34556;-88
2023/01/10 12:14:41;;;;;;;1.92;1.40;;;;;;;4.08;100.00;99782.72;5462325;32;33993;-89
2023/01/10 12:17:43;;;;;;;1.65;1.23;;;;;;;4.10;100.00;99791.41;5469544;32;32505;-87
2023/01/10 12:20:50;;;;;;;1.48;1.37;;;;;;;4.11;100.00;99788.72;5481761;32;36546;-86
2023/01/10 12:23:57;;;;;;;1.27;1.17;;;;;;;4.11;100.00;99796.59;5462289;32;32878;-87
2023/01/10 12:27:05;;;;;;;2.50;1.77;;;;;;;4.14;100.00;99796.53;5457561;32;32175;-88
2023/01/10 12:30:23;;;;;;;2.37;1.77;;;;;;;4.13;100.00;99793.94;5469812;32;33629;-89
2023/01/10 12:33:37;;;;;;;2.33;1.80;;;;;;;4.12;100.00;99800.94;5463662;32;34532;-88
2023/01/10 12:36:48;;;;;;;2.03;1.25;;;;;;;4.21;100.00;99809.44;5473284;32;34531;-88
2023/01/10 12:40:09;;;;;;;2.83;2.08;;;;;;;4.18;100.00;99813.88;5471944;32;33850;-88
2023/01/10 12:46:49;;;;;;;2.30;1.80;;;;;;;4.20;100.00;99826.09;5473977;32;35264;-89
2023/01/10 12:50:16;;;;;;;1.75;1.05;;;;;;;4.17;100.00;99841.03;5472608;32;34092;-89
2023/01/10 12:53:37;;;;;;;1.15;1.05;;;;;;;4.25;100.00;99845.19;5458417;32;33403;-92
2023/01/10 12:56:40;;;;;;;1.00;0.90;;;;;;;4.29;100.00;99858.16;5478328;32;33955;-90
2023/01/10 12:59:51;;;;;;;3.62;1.20;;;;;;;4.27;100.00;99849.47;5519708;27;33445;-89
2023/01/10 13:03:05;;;;;;;1.27;1.17;;;;;;;4.35;100.00;99849.25;5524168;27;33664;-90
2023/01/10 13:06:23;;;;;;;1.20;1.10;;;;;;;4.25;100.00;99853.06;5517354;27;33594;-90
2023/01/10 13:09:29;;;;;;;1.62;1.40;;;;;;;4.30;100.00;99854.66;5492571;32;33859;-90
2023/01/10 13:12:41;;;;;;;5.05;2.00;;;;;;;4.42;100.00;99863.87;5493175;32;34005;-90
2023/01/10 13:16:01;;;;;;;1.60;1.45;;;;;;;4.28;100.00;99880.06;5496520;32;34213;-89
2023/01/10 13:19:10;;;;;;;1.20;1.02;;;;;;;4.23;100.00;99868.84;5510044;32;35205;-89
2023/01/10 13:22:19;;;;;;;1.37;1.27;;;;;;;4.35;100.00;99872.00;5486424;32;32572;-89
2023/01/10 13:25:26;;;;;;;2.87;1.23;;;;;;;4.31;100.00;99877.38;5473325;32;33847;-88
2023/01/10 13:28:32;;;;;;;1.90;1.20;;;;;;;4.30;100.00;99885.28;5488183;27;32560;-89
2023/01/10 13:31:35;;;;;;;1.92;1.55;;;;;;;4.38;100.00;99895.56;5460170;32;32385;-89
2023/01/10 13:34:39;;;;;;;2.25;1.60;;;;;;;4.39;100.00;99906.03;5470823;32;35607;-89
2023/01/10 13:37:48;;;;;;;3.33;1.80;;;;;;;4.37;100.00;99905.19;5474687;32;34262;-90
2023/01/10 13:41:01;;;;;;;2.47;1.45;;;;;;;4.37;100.00;99917.47;5477151;32;33801;-90
2023/01/10 13:44:15;;;;;;;2.25;1.90;;;;;;;4.50;100.00;99913.56;5519707;27;34068;-89
2023/01/10 13:47:38;;;;;;;2.05;1.67;;;;;;;4.38;100.00;99924.44;5472570;32;35535;-92
2023/01/10 13:50:46;;;;;;;1.40;1.30;;;;;;;4.38;100.00;99930.53;5475841;32;33893;-90
2023/01/10 13:53:53;;;;;;;1.77;1.55;;;;;;;4.48;100.00;99944.25;5463306;32;32655;-89
2023/01/10 13:56:57;;;;;;;3.22;1.83;;;;;;;4.38;100.00;99935.78;5468762;32;32814;-90
2023/01/10 14:03:44;;;;;;;1.58;1.25;;;;;;;4.51;100.00;99945.91;5475581;32;34139;-91
2023/01/10 14:11:05;;;;;;;1.67;1.58;;;;;;;4.66;100.00;99955.06;4025185;30;20108;-91
2023/01/10 14:14:30;;;;;;;2.35;1.62;;;;;;;4.53;100.00;99962.50;5475079;32;33527;-91
2023/01/10 14:17:36;;;;;;;1.52;1.42;;;;;;;4.51;100.00;99961.66;5464526;32;33749;-90
2023/01/10 14:20:40;;;;;;;1.87;1.58;;;;;;;4.48;100.00;99970.50;5467980;32;33806;-90
2023/01/10 14:23:48;;;;;;;3.50;1.75;;;;;;;4.50;100.00;99973.97;5464287;32;34230;-90
2023/01/10 14:26:55;;;;;;;2.58;1.52;;;;;;;4.46;100.00;99985.47;5469036;32;34513;-89
2023/01/10 14:30:00;;;;;;;2.00;1.77;;;;;;;4.43;100.00;99990.81;5469063;32;34217;-89
2023/01/10 14:33:11;;;;;;;2.45;2.00;;;;;;;4.41;100.00;99995.25;5490355;32;34157;-89
2023/01/10 14:36:17;;;;;;;4.03;2.20;;;;;;;4.47;100.00;99999.47;5496918;32;33727;-89
2023/01/10 14:39:21;;;;;;;2.72;1.77;;;;;;;4.38;100.00;100009.31;5489304;32;33320;-89
2023/01/10 14:42:26;;;;;;;2.90;1.90;;;;;;;4.38;100.00;100006.69;5472286;32;33393;-89
2023/01/10 14:46:09;;;;;;;1.95;1.83;;;;;;;4.45;100.00;100020.53;5494634;27;34235;-88
2023/01/10 14:49:23;;;;;;;3.42;2.15;;;;;;;4.43;100.00;100022.34;5456748;32;34116;-89
2023/01/10 14:52:27;;;;;;;2.60;1.98;;;;;;;4.45;100.00;100036.28;5456869;32;33995;-89
2023/01/10 14:55:30;;;;;;;2.10;1.40;;;;;;;4.60;100.00;100042.84;5452904;32;34259;-89
2023/01/10 14:58:33;;;;;;;2.00;1.75;;;;;;;4.51;100.00;100033.47;5510268;27;33939;-90
2023/01/10 15:01:36;;;;;;;2.08;1.80;;;;;;;4.64;100.00;100044.47;5539105;26;34547;-90
2023/01/10 15:04:54;;;;;;;2.42;1.75;;;;;;;4.49;100.00;100044.94;5544411;27;34592;-87
2023/01/10 15:08:26;;;;;;;1.98;1.73;;;;;;;4.49;100.00;100051.06;5504569;32;34010;-91
2023/01/10 15:11:31;;;;;;;2.75;1.70;;;;;;;4.45;100.00;100054.66;5480125;32;33198;-88
2023/01/10 15:14:36;;;;;;;2.40;1.45;;;;;;;4.43;100.00;100067.00;5493375;32;33843;-90
2023/01/10 15:17:41;;;;;;;2.08;1.60;;;;;;;4.47;100.00;100071.22;5494954;32;34569;-90
2023/01/10 15:24:34;;;;;;;2.33;2.12;;;;;;;4.65;100.00;100069.84;834500;30;20424;-89
2023/01/10 15:27:46;;;;;;;2.92;2.08;;;;;;;4.44;100.00;100074.81;5465396;32;32614;-90
2023/01/10 15:30:49;;;;;;;2.58;1.95;;;;;;;4.44;100.00;100082.69;5479563;32;33701;-90
2023/01/10 15:33:55;;;;;;;2.15;1.80;;;;;;;4.45;100.00;100091.44;5494204;32;34633;-90
2023/01/10 15:37:00;;;;;;;2.65;1.90;;;;;;;4.43;100.00;100099.34;5493643;32;33677;-90
2023/01/10 15:40:18;;;;;;;2.83;2.35;;;;;;;4.39;100.00;100118.75;5495922;32;34625;-90
2023/01/10 15:43:29;;;;;;;3.53;2.37;;;;;;;4.40;100.00;100119.59;5499732;32;34423;-90
2023/01/10 15:46:36;;;;;;;5.07;2.10;;;;;;;4.40;100.00;100112.59;5504138;32;33847;-89
2023/01/10 15:49:51;;;;;;;2.40;1.92;;;;;;;4.42;100.00;100116.03;5495986;32;32482;-89
2023/01/10 15:52:58;;;;;;;3.08;1.95;;;;;;;4.38;100.00;100132.75;5481217;32;34839;-89
2023/01/10 15:56:14;;;;;;;2.85;2.37;;;;;;;4.35;100.00;100135.50;5492416;32;35063;-89
2023/01/10 15:59:31;;;;;;;2.97;2.25;;;;;;;4.37;100.00;100136.31;5476244;32;33008;-89
2023/01/10 16:02:34;;;;;;;2.83;2.35;;;;;;;4.43;100.00;100140.53;5491053;32;35389;-89
2023/01/10 16:05:37;;;;;;;2.50;2.30;;;;;;;4.47;100.00;100139.53;5503908;32;34208;-89
2023/01/10 16:08:40;;;;;;;4.20;2.45;;;;;;;4.41;100.00;100143.19;5498872;32;34148;-88
2023/01/10 16:15:17;;;;;;;3.87;2.50;;;;;;;4.53;100.00;100156.91;5479023;32;33726;-89
2023/01/10 16:18:21;;;;;;;3.17;2.60;;;;;;;4.43;100.00;100154.50;5476683;32;32892;-88
2023/01/10 16:21:31;;;;;;;3.50;2.53;;;;;;;4.49;100.00;100160.50;5485625;32;33637;-89
2023/01/10 16:24:40;;;;;;;3.15;2.60;;;;;;;4.48;100.00;100166.66;5491940;32;33949;-89
2023/01/10 16:27:43;;;;;;;3.17;2.42;;;;;;;4.36;100.00;100166.09;5495060;32;33458;-89
2023/01/10 16:30:47;;;;;;;4.18;2.78;;;;;;;4.35;100.00;100167.00;5493952;32;34693;-89
2023/01/10 16:33:50;;;;;;;4.70;2.65;;;;;;;4.49;100.00;100179.78;5479445;32;32341;-89
